Terminal Aerodrome Forecast
Issued by NWS

Home | Current Version | Previous Version | Text Only | Print | Product List | Glossary On
Versions: 1 2 3 4 5 6 7 8 9 10 11 12 13 14 15 16 17 18 19
007
FTUS46 KPDT 251120
TAFPSC
TAF
KPSC 251120Z 2512/2612 21008G15KT P6SM BKN070 OVC100
     FM252100 23012KT P6SM SCT080 BKN120
     FM260600 VRB05KT P6SM SCT150=

USA.gov is the U.S. government's official web portal to all federal, state and local government web resources and services.